岡山グライダークラブ活動状況掲示板あなたは無料カウンター人目の訪問者です

岡山グライダークラブ
岡山市浦安南町639-1 岡南飛行場
 使用機:シャイベ式 SF25C型 ファルケ   JA2330
      ヴァレンティン式17E型 タイフーン  JA2342
 練習日:毎日曜日  クラブルーム:電話 086-265-1810
この掲示板は岡山グライダークラブの活動状況をお知らせする掲示板です。
!!!この掲示板は投稿規制をしています。!!!
クラブ関連各種情報は 岡山グライダークラブクラブルーム      を       .
  ブリーフイング情報は  岡山グライダークラブブリーフィングルーム  をご覧下さい。 .
※写真はクリックすると拡大して見ることが出来ます。
岡南飛行場へのアクセス等は 岡南飛行場管理事務所 をご覧ください。
クラブの ホームページ ができました。

 
11月11日
by OGC at 2018/11/11(日) 23:15:44 No.20181111231253  削除コメント
1024 x 768 x 71,734バイト
No.1

11月11日
本日の参加者
  会員      13名
  その他      1名


@本日の様子




METAR
RJBK 110100Z VRB02KT 10KM SKC 13/10 Q1023 A3022
RKOB 110100Z VRB02KT 9999 FEW040 15/07 Q1023
RJOT 110100Z 07004KT 040V110 CAVOK 16/07 Q1023
RJOA 110100Z 08008KT CAVOK 15/05 Q1023
TAF
RJOB 102309Z 1100/1206 04004KT 9999 FEW025
     BECMG 1107/1109 24006KT
RJOT 102309Z 1100/1206 06008KT 9999 FEW030
     BECMG 1121/1200 27009KT
RJOA 102305Z 1100/1206 13005KT 9999 FEW030
     BECMG 1107/1109 32005KT

本日は、岡山マラソンがあり岡南飛行場の周辺が通行止めでお昼ご飯の買い出しが出来ないので、久しぶりにうどんパーティーを楽しみました。
フライトは、来週の飛行場祭りに向けたデモフライトの練習や無線検査を行い、ファルケはいつも通り訓練フライト、タイフーンは金毘羅さんや剣山、山岳地帯のナビ訓練を行い、日没ギリギリまで飛びまわっていました。



解散    17:20

1番機  11:25離陸 撤収機  16:45着陸 

SF25C JA2330 ファルケ     08Flt.3h05min  
17E   JA2342 タイフーン    05Flt.3h25min  
合計                    13Flt.6h30min

    << 戻る || ホームページ || 最新の掲示板へ